createdAt,value
2017-02-13T00:00:40.743Z,36.97
2017-02-13T00:01:50.670Z,36.88
2017-02-13T00:03:01.378Z,36.68
2017-02-13T00:04:11.280Z,37.07
2017-02-13T00:05:22.151Z,36.88
2017-02-13T00:06:32.441Z,36.97
2017-02-13T00:07:42.340Z,37.07
2017-02-13T00:08:52.643Z,36.97
2017-02-13T00:10:02.550Z,36.99
2017-02-13T00:11:12.837Z,36.88
2017-02-13T00:12:22.757Z,36.97
2017-02-13T00:13:33.081Z,36.97
2017-02-13T00:14:43.384Z,36.97
2017-02-13T00:15:53.700Z,37.26
2017-02-13T00:17:04.485Z,37.07
2017-02-13T00:18:14.778Z,37.16
2017-02-13T00:19:25.108Z,36.97
2017-02-13T00:20:35.405Z,37.07
2017-02-13T00:21:46.114Z,36.97
2017-02-13T00:22:56.883Z,36.97
2017-02-13T00:24:07.156Z,37.16
2017-02-13T00:25:17.437Z,36.97
2017-02-13T00:26:28.101Z,36.97
2017-02-13T00:27:38.783Z,36.88
2017-02-13T00:28:49.586Z,37.07
2017-02-13T00:29:59.481Z,37.07
2017-02-13T00:31:10.173Z,37.07
2017-02-13T00:32:20.458Z,37.07
2017-02-13T00:33:30.755Z,37.07
2017-02-13T00:34:41.296Z,37.07
2017-02-13T00:35:51.205Z,36.88
2017-02-13T00:37:01.868Z,36.97
2017-02-13T00:38:12.547Z,36.88
2017-02-13T00:39:23.225Z,36.78
2017-02-13T00:40:33.253Z,36.97
2017-02-13T00:41:43.949Z,36.78
2017-02-13T00:42:53.845Z,36.88
2017-02-13T00:44:04.513Z,36.97
2017-02-13T00:45:14.034Z,36.68
2017-02-13T00:46:25.040Z,36.68
2017-02-13T00:47:34.952Z,36.97
2017-02-13T00:48:45.143Z,36.97
2017-02-13T00:49:55.750Z,36.78
2017-02-13T00:51:06.070Z,36.97
2017-02-13T00:52:15.316Z,36.68
2017-02-13T00:53:25.634Z,36.78
2017-02-13T00:54:35.919Z,36.88
2017-02-13T00:55:45.817Z,36.97
2017-02-13T00:56:56.076Z,36.68
2017-02-13T00:58:06.996Z,36.97
2017-02-13T00:59:17.688Z,36.78
2017-02-13T01:00:28.022Z,36.78
2017-02-13T01:01:38.755Z,36.78
2017-02-13T01:02:48.647Z,36.97
2017-02-13T01:03:59.580Z,37.07
2017-02-13T01:05:10.290Z,36.78
2017-02-13T01:06:20.972Z,36.97
2017-02-13T01:07:30.868Z,36.97
2017-02-13T01:08:41.545Z,36.97
2017-02-13T01:09:52.481Z,36.68
2017-02-13T01:11:02.806Z,36.97
2017-02-13T01:12:13.074Z,36.88
2017-02-13T01:13:23.382Z,37.07
2017-02-13T01:14:34.097Z,36.97
2017-02-13T01:15:44.279Z,37.07
2017-02-13T01:16:54.972Z,36.88
2017-02-13T01:18:05.639Z,37.07
2017-02-13T01:19:16.605Z,36.97
2017-02-13T01:20:26.901Z,36.97
2017-02-13T01:21:37.506Z,36.97
2017-02-13T01:22:48.159Z,36.97
2017-02-13T01:23:58.051Z,36.97
2017-02-13T01:25:08.346Z,37.07
2017-02-13T01:26:18.231Z,37.07
2017-02-13T01:27:29.163Z,37.07
2017-02-13T01:28:39.455Z,36.97
2017-02-13T01:29:49.746Z,36.78
2017-02-13T01:31:00.082Z,37.16
2017-02-13T01:32:10.357Z,37.07
2017-02-13T01:33:21.283Z,36.97
2017-02-13T01:34:32.013Z,37.07
2017-02-13T01:35:42.309Z,37.07
2017-02-13T01:36:52.587Z,36.97
2017-02-13T01:38:03.234Z,36.88
2017-02-13T01:39:13.395Z,36.88
2017-02-13T01:40:24.082Z,36.97
2017-02-13T01:41:34.376Z,36.88
2017-02-13T01:42:44.277Z,36.88
2017-02-13T01:43:54.994Z,36.88
2017-02-13T01:45:05.185Z,37.16
2017-02-13T01:46:15.509Z,37.26
2017-02-13T01:47:25.822Z,36.97
2017-02-13T01:48:36.485Z,36.88
2017-02-13T01:49:46.773Z,36.97
2017-02-13T01:50:57.737Z,36.97
2017-02-13T01:52:08.050Z,36.97
2017-02-13T01:53:18.748Z,37.16
2017-02-13T01:54:29.037Z,36.88
2017-02-13T01:55:39.318Z,37.07
2017-02-13T01:56:50.314Z,37.16
2017-02-13T01:58:00.602Z,36.97
2017-02-13T01:59:10.918Z,37.26
2017-02-13T02:00:21.247Z,36.97
2017-02-13T02:01:31.564Z,36.97
2017-02-13T02:02:42.499Z,37.16
2017-02-13T02:03:52.780Z,37.16
2017-02-13T02:05:02.318Z,37.07
2017-02-13T02:06:12.645Z,36.88
2017-02-13T02:07:22.477Z,36.97
2017-02-13T02:08:33.489Z,36.58
2017-02-13T02:09:43.783Z,36.97
2017-02-13T02:10:54.447Z,36.97
2017-02-13T02:12:04.740Z,36.97
2017-02-13T02:13:15.042Z,36.88
2017-02-13T02:14:25.601Z,36.97
2017-02-13T02:15:35.930Z,37.07
2017-02-13T02:16:46.585Z,36.88
2017-02-13T02:17:57.290Z,36.88
2017-02-13T02:19:07.192Z,37.07
2017-02-13T02:20:18.113Z,36.88
2017-02-13T02:21:28.817Z,37.07
2017-02-13T02:22:39.478Z,36.97
2017-02-13T02:23:50.193Z,36.88
2017-02-13T02:25:00.967Z,36.97
2017-02-13T02:26:11.409Z,37.07
2017-02-13T02:27:22.359Z,36.97
2017-02-13T02:28:32.641Z,36.88
2017-02-13T02:29:42.981Z,36.97
2017-02-13T02:30:52.898Z,36.97
2017-02-13T02:32:03.855Z,36.97
2017-02-13T02:33:14.525Z,36.97
2017-02-13T02:34:25.266Z,36.97
2017-02-13T02:35:35.527Z,36.58
2017-02-13T02:36:46.241Z,36.88
2017-02-13T02:37:57.164Z,36.78
2017-02-13T02:39:06.680Z,36.97
2017-02-13T02:40:16.569Z,37.07
2017-02-13T02:41:26.854Z,36.97
2017-02-13T02:42:37.516Z,36.68
2017-02-13T02:43:48.103Z,36.88
2017-02-13T02:44:58.410Z,36.68
2017-02-13T02:46:08.737Z,36.68
2017-02-13T02:47:19.043Z,36.97
2017-02-13T02:48:29.320Z,36.97
2017-02-13T02:49:39.860Z,36.97
2017-02-13T02:50:49.373Z,36.97
2017-02-13T02:52:00.045Z,36.88
2017-02-13T02:53:09.971Z,36.97
2017-02-13T02:54:20.245Z,37.07
2017-02-13T02:55:31.197Z,36.97
2017-02-13T02:56:41.480Z,36.97
2017-02-13T02:57:52.198Z,37.07
2017-02-13T02:59:02.897Z,36.88
2017-02-13T03:00:13.227Z,36.97
2017-02-13T03:01:23.890Z,37.07
2017-02-13T03:02:33.783Z,36.88
2017-02-13T03:03:44.453Z,37.07
2017-02-13T03:04:54.743Z,37.07
2017-02-13T03:06:05.042Z,36.88
2017-02-13T03:07:15.965Z,36.88
2017-02-13T03:08:26.260Z,36.88
2017-02-13T03:09:36.184Z,37.16
2017-02-13T03:10:46.103Z,36.97
2017-02-13T03:11:56.417Z,36.97
2017-02-13T03:13:06.208Z,36.97
2017-02-13T03:14:16.106Z,37.07
2017-02-13T03:15:26.791Z,36.97
2017-02-13T03:16:37.467Z,37.26
2017-02-13T03:17:48.183Z,37.05
2017-02-13T03:18:58.716Z,36.97
2017-02-13T03:20:09.418Z,37.07
2017-02-13T03:21:19.339Z,37.16
2017-02-13T03:22:30.022Z,37.07
2017-02-13T03:23:40.320Z,37.07
2017-02-13T03:24:50.528Z,37.16
2017-02-13T03:26:00.811Z,37.16
2017-02-13T03:27:10.335Z,37.16
2017-02-13T03:28:20.212Z,36.97
2017-02-13T03:29:30.488Z,37.07
2017-02-13T03:30:40.625Z,37.07
2017-02-13T03:31:50.895Z,36.97
2017-02-13T03:33:00.813Z,36.97
2017-02-13T03:34:11.477Z,36.97
2017-02-13T03:35:21.787Z,36.97
2017-02-13T03:36:32.773Z,37.07
2017-02-13T03:37:43.469Z,37.07
2017-02-13T03:38:53.790Z,36.97
2017-02-13T03:40:04.088Z,36.88
2017-02-13T03:41:14.365Z,37.07
2017-02-13T03:42:25.449Z,36.97
2017-02-13T03:43:35.766Z,37.07
2017-02-13T03:44:46.050Z,36.97
2017-02-13T03:45:56.766Z,36.97
2017-02-13T03:47:07.427Z,36.97
2017-02-13T03:48:18.326Z,37.07
2017-02-13T03:49:28.623Z,36.97
2017-02-13T03:50:39.299Z,36.78
2017-02-13T03:51:49.967Z,36.88
2017-02-13T03:53:00.652Z,36.88
2017-02-13T03:54:11.252Z,36.97
2017-02-13T03:55:21.977Z,36.88
2017-02-13T03:56:32.258Z,37.07
2017-02-13T03:57:42.547Z,36.86
2017-02-13T03:58:51.703Z,36.95
2017-02-13T04:00:02.692Z,36.86
2017-02-13T04:01:12.587Z,36.95
2017-02-13T04:02:22.482Z,36.88
2017-02-13T04:03:32.772Z,36.97
2017-02-13T04:04:43.059Z,36.88
2017-02-13T04:05:54.003Z,36.97
2017-02-13T04:07:03.107Z,36.88
2017-02-13T04:08:13.795Z,36.97
2017-02-13T04:09:24.473Z,36.97
2017-02-13T04:10:35.170Z,36.78
2017-02-13T04:11:45.565Z,36.97
2017-02-13T04:12:55.865Z,36.97
2017-02-13T04:14:05.786Z,36.76
2017-02-13T04:15:16.453Z,37.07
2017-02-13T04:16:27.156Z,36.88
2017-02-13T04:17:37.684Z,36.88
2017-02-13T04:18:47.983Z,37.05
2017-02-13T04:19:58.675Z,36.78
2017-02-13T04:21:08.982Z,37.05
2017-02-13T04:22:19.267Z,36.97
2017-02-13T04:23:29.791Z,37.07
2017-02-13T04:24:40.494Z,36.97
2017-02-13T04:25:50.789Z,36.97
2017-02-13T04:27:01.132Z,36.78
2017-02-13T04:28:10.619Z,37.07
2017-02-13T04:29:21.208Z,36.78
2017-02-13T04:30:31.876Z,37.07
2017-02-13T04:31:42.149Z,36.88
2017-02-13T04:32:52.822Z,36.97
2017-02-13T04:34:03.133Z,36.78
2017-02-13T04:35:13.678Z,36.88
2017-02-13T04:36:24.019Z,36.88
2017-02-13T04:37:34.708Z,36.78
2017-02-13T04:38:45.387Z,36.78
2017-02-13T04:39:56.062Z,36.86
2017-02-13T04:41:07.025Z,36.86
2017-02-13T04:42:17.327Z,36.86
2017-02-13T04:43:28.009Z,36.88
2017-02-13T04:44:38.294Z,36.78
2017-02-13T04:45:48.573Z,36.78
2017-02-13T04:46:59.127Z,36.68
2017-02-13T04:48:09.439Z,36.78
2017-02-13T04:49:19.726Z,36.78
2017-02-13T04:50:30.018Z,36.78
2017-02-13T04:51:40.694Z,36.88
2017-02-13T04:52:51.615Z,36.68
2017-02-13T04:54:01.962Z,36.78
2017-02-13T04:55:11.871Z,36.86
2017-02-13T04:56:22.542Z,36.88
2017-02-13T04:57:32.837Z,36.78
2017-02-13T04:58:43.776Z,36.68
2017-02-13T04:59:54.461Z,36.97
2017-02-13T05:01:05.163Z,36.88
2017-02-13T05:02:15.495Z,36.88
2017-02-13T05:03:25.792Z,36.95
2017-02-13T05:04:35.550Z,36.88
2017-02-13T05:05:46.229Z,36.86
2017-02-13T05:06:56.501Z,36.97
2017-02-13T05:08:06.819Z,36.97
2017-02-13T05:09:17.472Z,36.78
2017-02-13T05:10:28.439Z,36.97
2017-02-13T05:11:39.140Z,36.97
2017-02-13T05:12:49.466Z,36.68
2017-02-13T05:14:00.191Z,36.88
2017-02-13T05:15:10.884Z,36.97
2017-02-13T05:16:21.410Z,36.97
2017-02-13T05:17:32.072Z,36.88
2017-02-13T05:18:42.368Z,36.78
2017-02-13T05:19:52.272Z,36.88
2017-02-13T05:21:02.566Z,36.97
2017-02-13T05:22:12.730Z,36.78
2017-02-13T05:23:23.032Z,36.78
2017-02-13T05:24:33.750Z,36.78
2017-02-13T05:25:44.027Z,36.88
2017-02-13T05:26:54.720Z,36.97
2017-02-13T05:28:05.717Z,36.78
2017-02-13T05:29:15.626Z,36.78
2017-02-13T05:30:25.888Z,36.78
2017-02-13T05:31:35.786Z,36.78
2017-02-13T05:32:45.731Z,36.88
2017-02-13T05:33:56.678Z,36.78
2017-02-13T05:35:06.577Z,36.88
2017-02-13T05:36:16.784Z,36.88
2017-02-13T05:37:27.461Z,36.88
2017-02-13T05:38:38.160Z,36.88
2017-02-13T05:39:49.098Z,36.88
2017-02-13T05:40:59.772Z,36.88
2017-02-13T05:42:10.098Z,36.88
2017-02-13T05:43:19.616Z,36.78
2017-02-13T05:44:30.320Z,36.78
2017-02-13T05:45:41.262Z,36.78
2017-02-13T05:46:51.155Z,36.88
2017-02-13T05:48:01.141Z,36.88
2017-02-13T05:49:11.830Z,36.88
2017-02-13T05:50:21.736Z,36.88
2017-02-13T05:51:32.287Z,36.88
2017-02-13T05:52:42.968Z,36.88
2017-02-13T05:53:52.893Z,36.78
2017-02-13T05:55:02.801Z,36.78
2017-02-13T05:56:13.080Z,36.78
2017-02-13T05:57:24.049Z,36.88
2017-02-13T05:58:34.349Z,36.88
2017-02-13T05:59:44.617Z,36.88
2017-02-13T06:00:54.913Z,36.78
2017-02-13T06:02:04.840Z,36.78
2017-02-13T06:03:15.754Z,36.88
2017-02-13T06:04:26.065Z,36.88
2017-02-13T06:05:36.333Z,36.78
2017-02-13T06:06:46.992Z,36.88
2017-02-13T06:07:57.669Z,36.88
2017-02-13T06:09:08.241Z,36.88
2017-02-13T06:10:17.734Z,36.88
2017-02-13T06:11:28.407Z,36.78
2017-02-13T06:12:38.292Z,36.78
2017-02-13T06:13:49.004Z,36.88
2017-02-13T06:14:59.599Z,36.97
2017-02-13T06:16:09.895Z,36.78
2017-02-13T06:17:20.573Z,36.88
2017-02-13T06:18:30.471Z,36.68
2017-02-13T06:19:40.767Z,36.78
2017-02-13T06:20:51.315Z,36.78
2017-02-13T06:22:01.963Z,36.97
2017-02-13T06:23:12.657Z,36.78
2017-02-13T06:24:22.924Z,36.88
2017-02-13T06:25:33.223Z,36.88
2017-02-13T06:26:43.359Z,36.78
2017-02-13T06:27:52.867Z,36.78
2017-02-13T06:29:02.778Z,36.88
2017-02-13T06:30:13.081Z,36.78
2017-02-13T06:31:23.785Z,36.88
2017-02-13T06:32:34.714Z,36.78
2017-02-13T06:33:45.389Z,36.78
2017-02-13T06:34:55.286Z,36.97
2017-02-13T06:36:05.926Z,36.88
2017-02-13T06:37:16.585Z,36.97
2017-02-13T06:38:27.113Z,36.78
2017-02-13T06:39:37.391Z,36.78
2017-02-13T06:40:47.689Z,36.97
2017-02-13T06:41:58.414Z,36.88
2017-02-13T06:43:08.766Z,36.97
2017-02-13T06:44:18.958Z,36.97
2017-02-13T06:45:29.669Z,36.97
2017-02-13T06:49:13.454Z,36.78
2017-02-13T06:50:24.725Z,36.88
2017-02-13T06:51:35.024Z,36.97
2017-02-13T06:52:45.322Z,36.88
2017-02-13T06:53:55.993Z,36.78
2017-02-13T06:55:06.941Z,36.78
2017-02-13T06:56:17.236Z,36.78
2017-02-13T06:57:27.504Z,36.78
2017-02-13T06:58:37.789Z,36.88
2017-02-13T06:59:47.306Z,36.78
2017-02-13T07:00:57.865Z,36.97
2017-02-13T07:02:07.785Z,36.88
2017-02-13T07:03:17.318Z,36.78
2017-02-13T07:04:27.644Z,36.78
2017-02-13T07:05:38.328Z,36.78
2017-02-13T07:06:49.352Z,36.88
2017-02-13T07:07:59.680Z,36.78
2017-02-13T07:09:09.600Z,36.78
2017-02-13T07:10:19.864Z,36.78
2017-02-13T07:11:30.561Z,36.78
2017-02-13T07:12:40.314Z,36.88
2017-02-13T07:13:50.988Z,36.78
2017-02-13T07:15:01.674Z,36.78
2017-02-13T07:16:11.995Z,36.78
2017-02-13T07:17:21.904Z,36.58
2017-02-13T07:18:32.833Z,36.78
2017-02-13T07:19:43.490Z,36.68
2017-02-13T07:20:53.750Z,36.88
2017-02-13T07:22:03.858Z,36.88
2017-02-13T07:23:14.144Z,36.88
2017-02-13T07:24:24.728Z,36.58
2017-02-13T07:25:34.992Z,36.58
2017-02-13T07:26:45.655Z,36.78
2017-02-13T07:27:56.308Z,36.88
2017-02-13T07:29:06.594Z,36.49
2017-02-13T07:30:17.133Z,36.58
2017-02-13T07:31:27.029Z,36.68
2017-02-13T07:32:36.916Z,36.58
2017-02-13T07:33:47.574Z,36.58
2017-02-13T07:34:58.261Z,36.4
2017-02-13T07:36:08.684Z,36.58
2017-02-13T07:37:19.365Z,36.4
2017-02-13T07:38:29.651Z,36.49
2017-02-13T07:39:39.925Z,36.58
2017-02-13T07:40:50.189Z,36.68
2017-02-13T07:42:00.774Z,36.49
2017-02-13T07:43:11.526Z,36.58
2017-02-13T07:44:22.065Z,36.58
2017-02-13T07:45:32.733Z,36.58
2017-02-13T07:46:49.291Z,36.58
2017-02-13T07:48:00.212Z,36.58
2017-02-13T07:49:10.513Z,36.49
2017-02-13T07:50:20.426Z,36.58
2017-02-13T07:51:31.223Z,36.4
2017-02-13T07:52:41.509Z,36.68
2017-02-13T07:53:51.675Z,36.88
2017-02-13T07:55:02.342Z,36.78
2017-02-13T07:56:13.008Z,36.58
2017-02-13T07:57:22.891Z,36.49
2017-02-13T07:58:33.181Z,36.49
2017-02-13T07:59:44.134Z,36.49
2017-02-13T08:00:54.800Z,36.68
2017-02-13T08:02:05.506Z,36.68
2017-02-13T08:03:16.367Z,36.68
2017-02-13T08:04:27.044Z,36.78
2017-02-13T08:05:37.581Z,36.49
2017-02-13T08:06:48.257Z,36.49
2017-02-13T08:07:58.909Z,36.4
2017-02-13T08:09:09.590Z,36.58
2017-02-13T08:10:19.893Z,36.4
2017-02-13T08:11:31.017Z,36.49
2017-02-13T08:12:41.630Z,36.49
2017-02-13T08:13:51.500Z,36.49
2017-02-13T08:15:01.805Z,36.58
2017-02-13T08:16:12.077Z,36.49
2017-02-13T08:17:22.239Z,36.4
2017-02-13T08:18:32.900Z,36.49
2017-02-13T08:19:43.604Z,36.4
2017-02-13T08:20:54.285Z,36.49
2017-02-13T08:22:04.987Z,36.3
2017-02-13T08:23:15.978Z,36.3
2017-02-13T08:24:26.279Z,36.3
2017-02-13T08:25:36.970Z,36.2
2017-02-13T08:26:47.643Z,36.3
2017-02-13T08:27:57.930Z,36.2
2017-02-13T08:29:08.900Z,36.3
2017-02-13T08:30:19.628Z,36.4
2017-02-13T08:31:29.961Z,36.11
2017-02-13T08:32:39.484Z,36.2
2017-02-13T08:33:50.137Z,36.2
2017-02-13T08:35:01.063Z,36.2
2017-02-13T08:36:11.361Z,36.3
2017-02-13T08:37:22.072Z,36.11
2017-02-13T08:38:32.000Z,36.3
2017-02-13T08:39:42.744Z,36.2
2017-02-13T08:40:53.328Z,36.2
2017-02-13T08:42:03.987Z,36.3
2017-02-13T08:43:14.303Z,36.11
2017-02-13T08:44:24.579Z,35.83
2017-02-13T08:45:35.259Z,36.2
2017-02-13T08:46:45.834Z,36.2
2017-02-13T08:47:56.448Z,36.22
2017-02-13T08:49:05.948Z,36.13
2017-02-13T08:50:16.247Z,36.03
2017-02-13T08:51:26.161Z,36.13
2017-02-13T08:52:36.698Z,35.93
2017-02-13T08:53:47.373Z,35.93
2017-02-13T08:54:56.898Z,36.03
2017-02-13T08:56:07.662Z,36.01
2017-02-13T08:57:17.208Z,36.13
2017-02-13T08:58:28.155Z,36.03
2017-02-13T08:59:38.827Z,36.03
2017-02-13T09:00:49.120Z,36.03
2017-02-13T09:01:59.450Z,36.22
2017-02-13T09:03:09.751Z,35.93
2017-02-13T09:04:20.661Z,36.03
2017-02-13T09:05:30.571Z,36.01
2017-02-13T09:06:41.248Z,35.83
2017-02-13T09:07:51.504Z,36.03
2017-02-13T09:09:02.173Z,36.13
2017-02-13T09:10:13.119Z,36.03
2017-02-13T09:11:23.013Z,36.03
2017-02-13T09:12:33.281Z,36.22
2017-02-13T09:13:43.946Z,36.22
2017-02-13T09:14:54.623Z,36.03
2017-02-13T09:16:05.064Z,36.01
2017-02-13T09:17:14.985Z,35.83
2017-02-13T09:18:25.307Z,35.93
2017-02-13T09:19:35.586Z,36.13
2017-02-13T09:20:46.298Z,36.01
2017-02-13T09:21:56.509Z,35.93
2017-02-13T09:23:07.207Z,36.13
2017-02-13T09:24:17.852Z,36.13
2017-02-13T09:25:27.393Z,35.93
2017-02-13T09:26:37.691Z,36.03
2017-02-13T09:27:47.904Z,35.93
2017-02-13T09:28:57.798Z,36.03
2017-02-13T09:30:08.501Z,36.03
2017-02-13T09:31:18.013Z,36.03
2017-02-13T09:32:28.700Z,36.22
2017-02-13T09:33:38.827Z,36.13
2017-02-13T09:34:49.124Z,36.03
2017-02-13T09:35:59.023Z,36.03
2017-02-13T09:37:08.955Z,36.13
2017-02-13T09:38:19.243Z,36.13
2017-02-13T09:39:29.398Z,36.13
2017-02-13T09:40:40.081Z,35.93
2017-02-13T09:41:50.399Z,36.03
2017-02-13T09:43:00.719Z,35.93
2017-02-13T09:44:10.986Z,36.03
2017-02-13T09:45:21.950Z,36.13
2017-02-13T09:46:32.265Z,36.03
2017-02-13T09:47:42.928Z,35.93
2017-02-13T09:48:53.232Z,35.93
2017-02-13T09:50:03.532Z,35.93
2017-02-13T09:51:13.687Z,36.13
2017-02-13T09:52:24.354Z,36.03
2017-02-13T09:53:34.663Z,36.13
2017-02-13T09:54:45.368Z,36.13
2017-02-13T09:55:55.652Z,36.13
2017-02-13T09:57:06.587Z,36.11
2017-02-13T09:58:16.873Z,36.13
2017-02-13T09:59:27.179Z,35.93
2017-02-13T10:00:37.459Z,35.93
2017-02-13T10:01:48.162Z,36.13
2017-02-13T10:02:58.681Z,36.13
2017-02-13T10:04:09.376Z,36.03
2017-02-13T10:05:18.873Z,36.03
2017-02-13T10:06:29.238Z,36.13
2017-02-13T10:07:39.638Z,35.93
2017-02-13T10:08:50.634Z,36.03
2017-02-13T10:10:01.384Z,35.93
2017-02-13T10:11:12.072Z,35.93
2017-02-13T10:12:21.993Z,36.13
2017-02-13T10:13:32.709Z,36.03
2017-02-13T10:14:43.251Z,36.01
2017-02-13T10:15:53.168Z,36.03
2017-02-13T10:17:03.465Z,36.03
2017-02-13T10:18:13.780Z,36.01
2017-02-13T10:19:24.087Z,35.93
2017-02-13T10:20:35.015Z,36.03
2017-02-13T10:21:45.687Z,36.13
2017-02-13T10:22:55.966Z,36.13
2017-02-13T10:24:06.299Z,36.03
2017-02-13T10:25:15.814Z,36.03
2017-02-13T10:26:26.364Z,36.03
2017-02-13T10:27:36.324Z,36.03
2017-02-13T10:28:46.624Z,36.13
2017-02-13T10:29:57.326Z,36.13
2017-02-13T10:31:08.019Z,36.03
2017-02-13T10:32:18.626Z,35.83
2017-02-13T10:33:28.511Z,36.03
2017-02-13T10:34:38.806Z,36.13
2017-02-13T10:35:49.156Z,35.83
2017-02-13T10:36:59.424Z,36.13
2017-02-13T10:38:09.961Z,36.13
2017-02-13T10:39:20.286Z,36.01
2017-02-13T10:40:30.578Z,36.13
2017-02-13T10:41:40.472Z,36.03
2017-02-13T10:42:50.764Z,36.22
2017-02-13T10:44:01.301Z,36.13
2017-02-13T10:45:11.988Z,36.03
2017-02-13T10:46:22.274Z,36.03
2017-02-13T10:47:32.975Z,35.83
2017-02-13T10:48:42.488Z,36.03
2017-02-13T10:49:53.051Z,36.13
2017-02-13T10:51:03.762Z,36.13
2017-02-13T10:52:13.648Z,36.03
2017-02-13T10:53:24.333Z,36.13
2017-02-13T10:54:34.605Z,36.13
2017-02-13T10:55:45.534Z,35.93
2017-02-13T10:56:55.419Z,36.03
2017-02-13T10:58:06.085Z,35.64
2017-02-13T10:59:17.065Z,36.03
2017-02-13T11:00:27.723Z,36.03
2017-02-13T11:01:38.649Z,36.13
2017-02-13T11:02:49.315Z,36.03
2017-02-13T11:04:00.007Z,36.03
2017-02-13T11:05:10.302Z,35.83
2017-02-13T11:06:20.595Z,35.83
2017-02-13T11:07:31.164Z,35.83
2017-02-13T11:08:41.838Z,35.74
2017-02-13T11:09:52.120Z,35.74
2017-02-13T11:11:02.395Z,36.03
2017-02-13T11:12:12.725Z,35.74
2017-02-13T11:13:23.261Z,35.74
2017-02-13T11:14:33.565Z,35.83
2017-02-13T11:15:43.462Z,35.74
2017-02-13T11:16:54.144Z,35.64
2017-02-13T11:18:04.829Z,35.93
2017-02-13T11:19:14.609Z,35.83
2017-02-13T11:20:25.285Z,35.64
2017-02-13T11:21:35.573Z,35.93
2017-02-13T11:22:45.879Z,35.83
2017-02-13T11:23:56.589Z,35.74
2017-02-13T11:25:07.123Z,35.93
2017-02-13T11:26:16.647Z,35.74
2017-02-13T11:27:27.305Z,35.74
2017-02-13T11:28:37.582Z,35.93
2017-02-13T11:29:47.888Z,35.74
2017-02-13T11:30:58.462Z,35.93
2017-02-13T11:32:08.777Z,35.93
2017-02-13T11:33:18.760Z,35.93
2017-02-13T11:34:28.296Z,35.93
2017-02-13T11:35:38.187Z,35.93
2017-02-13T11:36:48.971Z,35.83
2017-02-13T11:37:59.946Z,35.64
2017-02-13T11:39:09.464Z,35.74
2017-02-13T11:40:19.791Z,35.64
2017-02-13T11:41:30.119Z,35.64
2017-02-13T11:42:41.074Z,35.83
2017-02-13T11:43:51.767Z,35.74
2017-02-13T11:45:00.880Z,35.74
2017-02-13T11:46:11.186Z,35.64
2017-02-13T11:47:21.843Z,35.74
2017-02-13T11:48:32.770Z,35.74
2017-02-13T11:49:43.074Z,35.93
2017-02-13T11:50:52.985Z,35.64
2017-02-13T11:52:03.663Z,35.64
2017-02-13T11:53:14.355Z,35.83
2017-02-13T11:54:24.878Z,35.64
2017-02-13T11:55:35.160Z,35.64
2017-02-13T11:56:45.480Z,35.83
2017-02-13T11:57:55.388Z,35.55
2017-02-13T11:59:05.305Z,35.64
2017-02-13T12:00:15.528Z,35.64
2017-02-13T12:01:26.203Z,35.64
2017-02-13T12:02:36.129Z,35.64
2017-02-13T12:03:46.451Z,35.64
2017-02-13T12:04:56.363Z,35.74
2017-02-13T12:06:06.950Z,35.55
2017-02-13T12:07:17.259Z,35.74
2017-02-13T12:08:27.170Z,35.64
2017-02-13T12:09:37.442Z,35.74
2017-02-13T12:10:47.715Z,35.74
2017-02-13T12:11:58.644Z,35.83
2017-02-13T12:13:08.931Z,35.74
2017-02-13T12:14:18.831Z,35.64
2017-02-13T12:15:29.521Z,35.64
2017-02-13T12:16:39.493Z,35.74
2017-02-13T12:17:50.437Z,35.64
2017-02-13T12:19:00.342Z,35.83
2017-02-13T12:20:10.648Z,35.64
2017-02-13T12:21:20.534Z,35.55
2017-02-13T12:22:30.056Z,35.64
2017-02-13T12:23:40.985Z,35.83
2017-02-13T12:24:51.274Z,35.74
2017-02-13T12:26:01.831Z,35.64
2017-02-13T12:27:12.128Z,35.64
2017-02-13T12:28:22.016Z,35.64
2017-02-13T12:29:32.578Z,35.64
2017-02-13T12:30:43.298Z,35.64
2017-02-13T12:31:53.613Z,35.64
2017-02-13T12:33:03.949Z,35.55
2017-02-13T12:34:14.657Z,35.64
2017-02-13T12:35:25.289Z,35.64
2017-02-13T12:36:35.960Z,35.55
2017-02-13T12:37:46.666Z,35.74
2017-02-13T12:38:56.947Z,35.64
2017-02-13T12:40:07.634Z,35.74
2017-02-13T12:41:18.164Z,35.74
2017-02-13T12:42:28.881Z,35.55
2017-02-13T12:43:39.593Z,35.74
2017-02-13T12:45:33.975Z,35.74
2017-02-13T12:46:44.193Z,35.64
2017-02-13T12:47:54.901Z,35.64
2017-02-13T12:49:05.578Z,35.64
2017-02-13T12:50:15.851Z,35.74
2017-02-13T12:51:26.520Z,35.45
2017-02-13T12:52:37.527Z,35.45
2017-02-13T12:53:47.791Z,35.45
2017-02-13T12:54:58.465Z,35.36
2017-02-13T12:56:08.742Z,35.64
2017-02-13T12:57:19.015Z,35.64
2017-02-13T12:58:29.950Z,35.64
2017-02-13T12:59:40.662Z,35.83
2017-02-13T13:00:51.363Z,35.36
2017-02-13T13:02:02.037Z,35.64
2017-02-13T13:03:11.962Z,35.64
2017-02-13T13:04:22.892Z,35.45
2017-02-13T13:05:33.183Z,35.55
2017-02-13T13:06:43.871Z,35.55
2017-02-13T13:07:54.144Z,35.45
2017-02-13T13:09:04.448Z,35.64
2017-02-13T13:10:14.955Z,35.64
2017-02-13T13:11:25.667Z,35.55
2017-02-13T13:12:35.955Z,35.36
2017-02-13T13:13:46.632Z,35.55
2017-02-13T13:14:56.916Z,35.45
2017-02-13T13:16:07.427Z,35.64
2017-02-13T13:17:18.120Z,35.36
2017-02-13T13:18:27.260Z,35.36
2017-02-13T13:19:37.139Z,35.45
2017-02-13T13:20:47.815Z,35.36
2017-02-13T13:21:58.752Z,35.45
2017-02-13T13:23:09.442Z,35.45
2017-02-13T13:24:19.357Z,35.36
2017-02-13T13:25:30.060Z,35.45
2017-02-13T13:26:39.971Z,35.45
2017-02-13T13:27:50.509Z,35.36
2017-02-13T13:29:01.160Z,35.45
2017-02-13T13:30:11.060Z,35.38
2017-02-13T13:31:21.320Z,35.36
2017-02-13T13:32:31.669Z,35.36
2017-02-13T13:33:42.596Z,35.36
2017-02-13T13:34:52.877Z,35.36
2017-02-13T13:36:03.150Z,35.36
2017-02-13T13:37:13.438Z,35.16
2017-02-13T13:38:23.705Z,35.36
2017-02-13T13:39:34.676Z,35.38
2017-02-13T13:40:44.588Z,35.28
2017-02-13T13:41:55.244Z,35.36
2017-02-13T13:43:05.532Z,35.36
2017-02-13T13:44:15.443Z,35.26
2017-02-13T13:45:25.985Z,35.36
2017-02-13T13:46:36.265Z,35.45
2017-02-13T13:47:46.573Z,35.28
2017-02-13T13:48:57.262Z,35.26
2017-02-13T13:50:07.591Z,35.45
2017-02-13T13:51:18.555Z,35.26
2017-02-13T13:52:29.232Z,35.26
2017-02-13T13:53:39.144Z,35.45
2017-02-13T13:54:49.825Z,35.36
2017-02-13T13:56:00.126Z,35.28
2017-02-13T13:57:10.281Z,35.28
2017-02-13T13:58:20.581Z,35.28
2017-02-13T13:59:30.888Z,35.28
2017-02-13T14:00:41.199Z,35.26
2017-02-13T14:01:51.483Z,35.18
2017-02-13T14:03:02.444Z,35.38
2017-02-13T14:04:12.360Z,35.36
2017-02-13T14:05:22.271Z,35.16
2017-02-13T14:06:32.186Z,35.26
2017-02-13T14:07:42.862Z,35.16
2017-02-13T14:08:52.992Z,35.28
2017-02-13T14:10:02.897Z,35.18
2017-02-13T14:11:12.806Z,35.18
2017-02-13T14:12:23.087Z,35.47
2017-02-13T14:13:33.801Z,35.16
2017-02-13T14:14:44.375Z,35.45
2017-02-13T14:15:54.648Z,35.08
2017-02-13T14:17:05.322Z,35.06
2017-02-13T14:18:15.227Z,35.36
2017-02-13T14:19:25.900Z,35.08
2017-02-13T14:20:36.838Z,35.08
2017-02-13T14:21:47.136Z,35.26
2017-02-13T14:22:57.841Z,35.28
2017-02-13T14:24:08.156Z,35.18
2017-02-13T14:25:18.441Z,35.18
2017-02-13T14:26:29.012Z,35.08
2017-02-13T14:27:38.919Z,35.08
2017-02-13T14:28:49.239Z,35.28
2017-02-13T14:29:59.165Z,35.08
2017-02-13T14:31:09.056Z,35.18
2017-02-13T14:32:19.265Z,35.18
2017-02-13T14:33:29.157Z,35.18
2017-02-13T14:34:39.452Z,35.18
2017-02-13T14:35:50.116Z,35.18
2017-02-13T14:37:00.807Z,35.08
2017-02-13T14:38:11.000Z,35.28
2017-02-13T14:39:21.668Z,35.28
2017-02-13T14:40:32.332Z,35.08
2017-02-13T14:41:42.496Z,35.08
2017-02-13T14:42:52.777Z,35.08
2017-02-13T14:44:03.700Z,35.18
2017-02-13T14:45:14.383Z,34.99
2017-02-13T14:46:25.061Z,35.28
2017-02-13T14:47:35.740Z,35.18
2017-02-13T14:48:46.426Z,35.18
2017-02-13T14:49:57.341Z,35.08
2017-02-13T14:51:08.047Z,35.18
2017-02-13T14:52:17.935Z,35.18
2017-02-13T14:53:28.675Z,35.18
2017-02-13T14:54:38.964Z,35.18
2017-02-13T14:55:49.107Z,35.18
2017-02-13T14:56:59.004Z,35.18
2017-02-13T14:58:09.689Z,35.28
2017-02-13T14:59:19.559Z,35.28
2017-02-13T15:00:29.860Z,35.18
2017-02-13T15:01:40.452Z,35.08
2017-02-13T15:02:51.155Z,35.28
2017-02-13T15:04:01.443Z,35.08
2017-02-13T15:05:11.754Z,35.18
2017-02-13T15:06:22.079Z,35.28
2017-02-13T15:07:33.083Z,35.08
2017-02-13T15:08:43.772Z,35.18
2017-02-13T15:09:54.442Z,35.18
2017-02-13T15:11:05.137Z,35.08